Impacts METAR Board
IDs:

KLAS - Las Vegas/Reid Intl, NV, US

Updated at: 2300 UTC 21 May 2022
Potential Impact None Slight Moderate High
Time 21/11Z 21/12Z 21/13Z 21/14Z 21/15Z 21/16Z 21/17Z 21/18Z 21/19Z 21/20Z 21/21Z 21/22Z 21/23Z
Temp63 62 62 64 66 68 70 73 74 76 77 80 82
Dewpt11 12 11 12 13 13 12 12 11 12 12 13 13
Altim29.87 29.88 29.90 29.93 29.95 29.96 29.95 29.97 29.93 29.92 29.90 29.88 29.86
VIS10 10 10 10 10 10 10 10 10 10 10 10 10
CIG-- -- -- -- -- -- -- -- -- -- -- -- --
CoverCLRCLRCLRCLRCLRCLRCLRCLRFEWFEWFEWCLRCLR
FltCatVFRVFRVFRVFRVFRVFRVFRVFRVFRVFRVFRVFRVFR
WX--------------------------
WDir605040601020360006000340
WSpd11 8 6 5 9 8 8 5 4 6 4 4 4
WGst-- -- -- -- -- -- -- -- -- -- -- -- --
Raw hourly METARs
KLAS 211056Z 06011KT 10SM CLR 17/M12 A2987 RMK AO2 SLP099 T01721117
KLAS 211156Z 05008KT 10SM CLR 17/M11 A2988 RMK AO2 SLP100 T01671111 10206 20167 51008
KLAS 211256Z 04006KT 10SM CLR 17/M12 A2990 RMK AO2 SLP107 T01671117
KLAS 211356Z 06005KT 10SM CLR 18/M11 A2993 RMK AO2 SLP117 T01781111
KLAS 211456Z 01009KT 10SM CLR 19/M11 A2995 RMK AO2 SLP123 T01891106 53022
KLAS 211556Z 02008KT 10SM CLR 20/M11 A2996 RMK AO2 SLP126 T02001106
KLAS 211656Z 36008KT 10SM CLR 21/M11 A2995 RMK AO2 SLP125 T02111111
KLAS 211756Z VRB05KT 10SM CLR 23/M11 A2997 RMK AO2 PRESRR SLP132 T02281111 10228 20161 53007
KLAS 211856Z VRB04KT 10SM FEW250 23/M12 A2993 RMK AO2 SLP117 T02331117
KLAS 211956Z 06006KT 10SM FEW250 24/M11 A2992 RMK AO2 SLP113 T02441111
KLAS 212056Z VRB04KT 10SM FEW250 25/M11 A2990 RMK AO2 SLP109 T02501111 56021
KLAS 212156Z VRB04KT 10SM CLR 27/M11 A2988 RMK AO2 SLP100 T02671106
KLAS 212256Z 34004KT 10SM CLR 28/M11 A2986 RMK AO2 SLP092 T02781106



Page loaded:  23:16 UTC  |   04:16 PM Pacific  |   05:16 PM Mountain  |   06:16 PM Central  |   07:16 PM Eastern

 

ADVISORIES

FORECASTS

FORECASTS

OBSERVATIONS

USER TOOLS

ABOUT US